sensor_id;sensor_type;location;lat;lon;timestamp;temperature;humidity
57444;DHT22;43289;52.962;6.196;2023-04-24T04:51:07;16.30;99.90
57444;DHT22;43289;52.962;6.196;2023-04-24T04:53:32;10.50;99.90
57444;DHT22;43289;52.962;6.196;2023-04-24T04:55:58;10.30;99.90
57444;DHT22;43289;52.962;6.196;2023-04-24T04:58:29;10.30;99.90
57444;DHT22;43289;52.962;6.196;2023-04-24T05:00:56;10.20;99.90
57444;DHT22;43289;52.962;6.196;2023-04-24T05:03:22;10.20;99.90
57444;DHT22;43289;52.962;6.196;2023-04-24T05:05:48;10.20;99.90
57444;DHT22;43289;52.962;6.196;2023-04-24T05:08:13;10.20;99.90
57444;DHT22;43289;52.962;6.196;2023-04-24T05:10:39;10.20;99.90
57444;DHT22;43289;52.962;6.196;2023-04-24T05:13:04;10.20;99.90
57444;DHT22;43289;52.962;6.196;2023-04-24T05:15:30;10.20;99.90
57444;DHT22;43289;52.962;6.196;2023-04-24T05:17:56;10.20;99.90
57444;DHT22;43289;52.962;6.196;2023-04-24T05:20:21;10.20;99.90
57444;DHT22;43289;52.962;6.196;2023-04-24T05:22:47;10.20;99.90
57444;DHT22;43289;52.962;6.196;2023-04-24T05:25:12;10.20;99.90
57444;DHT22;43289;52.962;6.196;2023-04-24T05:27:38;10.20;99.90
57444;DHT22;43289;52.962;6.196;2023-04-24T05:30:05;10.20;99.90
57444;DHT22;43289;52.962;6.196;2023-04-24T05:32:30;10.20;99.90
57444;DHT22;43289;52.962;6.196;2023-04-24T05:34:56;10.20;99.90
57444;DHT22;43289;52.962;6.196;2023-04-24T05:37:22;10.20;99.90
57444;DHT22;43289;52.962;6.196;2023-04-24T05:39:47;10.20;99.90
57444;DHT22;43289;52.962;6.196;2023-04-24T05:42:13;10.20;99.90
57444;DHT22;43289;52.962;6.196;2023-04-24T05:44:38;10.20;99.90
57444;DHT22;43289;52.962;6.196;2023-04-24T05:47:04;10.20;99.90
57444;DHT22;43289;52.962;6.196;2023-04-24T05:49:29;10.20;99.90
57444;DHT22;43289;52.962;6.196;2023-04-24T05:51:55;10.10;99.90
57444;DHT22;43289;52.962;6.196;2023-04-24T05:54:21;10.10;99.90
57444;DHT22;43289;52.962;6.196;2023-04-24T05:56:46;10.10;99.90
57444;DHT22;43289;52.962;6.196;2023-04-24T05:59:12;10.10;99.90
57444;DHT22;43289;52.962;6.196;2023-04-24T06:05:37;10.10;99.90
57444;DHT22;43289;52.962;6.196;2023-04-24T06:08:03;10.10;99.90
57444;DHT22;43289;52.962;6.196;2023-04-24T06:10:28;10.10;99.90
57444;DHT22;43289;52.962;6.196;2023-04-24T06:12:54;10.10;99.90
57444;DHT22;43289;52.962;6.196;2023-04-24T06:15:26;10.10;99.90
57444;DHT22;43289;52.962;6.196;2023-04-24T06:17:52;10.10;99.90
57444;DHT22;43289;52.962;6.196;2023-04-24T06:20:18;10.00;99.90
57444;DHT22;43289;52.962;6.196;2023-04-24T06:22:43;10.00;99.90
57444;DHT22;43289;52.962;6.196;2023-04-24T06:25:09;10.00;99.90
57444;DHT22;43289;52.962;6.196;2023-04-24T06:27:34;10.10;99.90
57444;DHT22;43289;52.962;6.196;2023-04-24T06:30:00;10.10;99.90
57444;DHT22;43289;52.962;6.196;2023-04-24T06:32:27;10.10;99.90
57444;DHT22;43289;52.962;6.196;2023-04-24T06:34:53;10.00;99.90
57444;DHT22;43289;52.962;6.196;2023-04-24T06:37:19;10.10;99.90
57444;DHT22;43289;52.962;6.196;2023-04-24T06:39:46;10.10;99.90
57444;DHT22;43289;52.962;6.196;2023-04-24T06:42:11;10.10;99.90
57444;DHT22;43289;52.962;6.196;2023-04-24T06:44:37;10.00;99.90
57444;DHT22;43289;52.962;6.196;2023-04-24T06:47:07;10.00;99.90
57444;DHT22;43289;52.962;6.196;2023-04-24T06:49:37;10.00;99.90
57444;DHT22;43289;52.962;6.196;2023-04-24T06:52:20;10.00;99.90
57444;DHT22;43289;52.962;6.196;2023-04-24T06:54:47;10.00;99.90
57444;DHT22;43289;52.962;6.196;2023-04-24T06:57:33;10.10;99.90
57444;DHT22;43289;52.962;6.196;2023-04-24T07:00:05;10.10;99.90
57444;DHT22;43289;52.962;6.196;2023-04-24T07:02:32;10.10;99.90
57444;DHT22;43289;52.962;6.196;2023-04-24T07:04:58;10.10;99.90
57444;DHT22;43289;52.962;6.196;2023-04-24T07:10:21;10.10;99.90
57444;DHT22;43289;52.962;6.196;2023-04-24T07:12:48;10.00;99.90
57444;DHT22;43289;52.962;6.196;2023-04-24T07:15:14;10.00;99.90
57444;DHT22;43289;52.962;6.196;2023-04-24T07:17:40;10.00;99.90
57444;DHT22;43289;52.962;6.196;2023-04-24T07:20:09;10.00;99.90
57444;DHT22;43289;52.962;6.196;2023-04-24T07:22:36;10.00;99.90
57444;DHT22;43289;52.962;6.196;2023-04-24T07:25:02;10.00;99.90
57444;DHT22;43289;52.962;6.196;2023-04-24T07:27:28;9.90;99.90
57444;DHT22;43289;52.962;6.196;2023-04-24T07:30:01;9.90;99.90
57444;DHT22;43289;52.962;6.196;2023-04-24T07:32:27;9.90;99.90
57444;DHT22;43289;52.962;6.196;2023-04-24T07:34:52;9.90;99.90
57444;DHT22;43289;52.962;6.196;2023-04-24T07:37:18;9.80;99.90
57444;DHT22;43289;52.962;6.196;2023-04-24T07:39:44;9.70;99.90
57444;DHT22;43289;52.962;6.196;2023-04-24T07:42:10;9.80;99.90
57444;DHT22;43289;52.962;6.196;2023-04-24T07:44:42;9.80;99.90
57444;DHT22;43289;52.962;6.196;2023-04-24T07:47:08;9.70;99.90
57444;DHT22;43289;52.962;6.196;2023-04-24T07:49:34;9.70;99.90
57444;DHT22;43289;52.962;6.196;2023-04-24T10:12:26;9.60;99.90
57444;DHT22;43289;52.962;6.196;2023-04-24T10:14:52;9.60;99.90
57444;DHT22;43289;52.962;6.196;2023-04-24T10:17:18;9.60;99.90
57444;DHT22;43289;52.962;6.196;2023-04-24T10:19:47;9.60;99.90
57444;DHT22;43289;52.962;6.196;2023-04-24T10:22:14;9.50;99.90
57444;DHT22;43289;52.962;6.196;2023-04-24T10:24:41;9.60;99.90
57444;DHT22;43289;52.962;6.196;2023-04-24T10:27:08;9.60;99.90
57444;DHT22;43289;52.962;6.196;2023-04-24T10:29:38;9.60;99.90
57444;DHT22;43289;52.962;6.196;2023-04-24T10:32:07;9.70;99.90
57444;DHT22;43289;52.962;6.196;2023-04-24T10:34:32;9.70;99.90
57444;DHT22;43289;52.962;6.196;2023-04-24T10:36:58;9.90;99.90
57444;DHT22;43289;52.962;6.196;2023-04-24T10:39:24;10.00;99.90
57444;DHT22;43289;52.962;6.196;2023-04-24T10:41:49;10.10;99.90
57444;DHT22;43289;52.962;6.196;2023-04-24T10:44:16;10.10;99.90
57444;DHT22;43289;52.962;6.196;2023-04-24T10:46:46;10.00;99.90
57444;DHT22;43289;52.962;6.196;2023-04-24T10:49:13;9.90;99.90
57444;DHT22;43289;52.962;6.196;2023-04-24T10:51:53;9.90;99.90
57444;DHT22;43289;52.962;6.196;2023-04-24T10:54:29;9.80;99.90
57444;DHT22;43289;52.962;6.196;2023-04-24T10:59:43;9.70;99.90
57444;DHT22;43289;52.962;6.196;2023-04-24T11:02:10;9.70;99.90
57444;DHT22;43289;52.962;6.196;2023-04-24T11:04:36;9.70;99.90
57444;DHT22;43289;52.962;6.196;2023-04-24T11:07:05;9.80;99.90
57444;DHT22;43289;52.962;6.196;2023-04-24T11:09:31;9.90;99.90
57444;DHT22;43289;52.962;6.196;2023-04-24T11:12:15;10.00;99.90
57444;DHT22;43289;52.962;6.196;2023-04-24T16:53:49;10.20;99.90
57444;DHT22;43289;52.962;6.196;2023-04-24T16:56:15;8.80;99.90
57444;DHT22;43289;52.962;6.196;2023-04-24T16:58:40;8.70;99.90
57444;DHT22;43289;52.962;6.196;2023-04-24T17:01:06;8.60;99.90
57444;DHT22;43289;52.962;6.196;2023-04-24T17:03:31;8.50;99.90
57444;DHT22;43289;52.962;6.196;2023-04-24T17:05:57;8.50;99.90
57444;DHT22;43289;52.962;6.196;2023-04-24T17:08:26;8.50;99.90
57444;DHT22;43289;52.962;6.196;2023-04-24T17:10:52;8.50;99.90
57444;DHT22;43289;52.962;6.196;2023-04-24T17:13:17;8.60;99.90
57444;DHT22;43289;52.962;6.196;2023-04-24T17:15:43;8.70;99.90
57444;DHT22;43289;52.962;6.196;2023-04-24T17:18:08;8.70;99.90
57444;DHT22;43289;52.962;6.196;2023-04-24T17:20:34;8.70;99.90
57444;DHT22;43289;52.962;6.196;2023-04-24T17:23:03;8.50;99.90
57444;DHT22;43289;52.962;6.196;2023-04-24T17:25:28;8.30;99.90
57444;DHT22;43289;52.962;6.196;2023-04-24T17:27:54;8.10;99.90
57444;DHT22;43289;52.962;6.196;2023-04-24T17:30:19;7.90;99.90
57444;DHT22;43289;52.962;6.196;2023-04-24T17:32:45;7.80;99.90
57444;DHT22;43289;52.962;6.196;2023-04-24T17:35:11;7.80;99.90
57444;DHT22;43289;52.962;6.196;2023-04-24T17:37:43;7.70;99.90
57444;DHT22;43289;52.962;6.196;2023-04-24T17:40:09;7.70;99.90
57444;DHT22;43289;52.962;6.196;2023-04-24T17:42:36;7.70;99.90
57444;DHT22;43289;52.962;6.196;2023-04-24T17:45:06;7.70;99.90
57444;DHT22;43289;52.962;6.196;2023-04-24T17:47:31;7.60;99.90
57444;DHT22;43289;52.962;6.196;2023-04-24T17:49:57;7.70;99.90
57444;DHT22;43289;52.962;6.196;2023-04-24T17:52:23;7.70;99.90
57444;DHT22;43289;52.962;6.196;2023-04-24T17:54:48;7.70;99.90
57444;DHT22;43289;52.962;6.196;2023-04-24T17:57:14;7.70;99.90
57444;DHT22;43289;52.962;6.196;2023-04-24T17:59:40;7.70;99.90
57444;DHT22;43289;52.962;6.196;2023-04-24T18:02:05;7.70;99.90
57444;DHT22;43289;52.962;6.196;2023-04-24T18:04:31;7.70;99.90
57444;DHT22;43289;52.962;6.196;2023-04-24T18:06:56;7.70;99.90
57444;DHT22;43289;52.962;6.196;2023-04-24T18:09:22;7.80;99.90
57444;DHT22;43289;52.962;6.196;2023-04-24T18:11:47;7.80;99.90
57444;DHT22;43289;52.962;6.196;2023-04-24T18:14:14;7.80;99.90
57444;DHT22;43289;52.962;6.196;2023-04-24T18:16:48;7.80;99.90
57444;DHT22;43289;52.962;6.196;2023-04-24T18:19:13;7.80;99.90
57444;DHT22;43289;52.962;6.196;2023-04-24T18:21:39;7.80;99.90
57444;DHT22;43289;52.962;6.196;2023-04-24T18:24:05;7.80;99.90
57444;DHT22;43289;52.962;6.196;2023-04-24T18:26:30;7.80;99.90
57444;DHT22;43289;52.962;6.196;2023-04-24T18:28:57;7.80;99.90
57444;DHT22;43289;52.962;6.196;2023-04-24T18:31:23;7.80;99.90
57444;DHT22;43289;52.962;6.196;2023-04-24T18:33:48;7.80;99.90
57444;DHT22;43289;52.962;6.196;2023-04-24T18:36:14;7.80;99.90
57444;DHT22;43289;52.962;6.196;2023-04-24T18:38:39;7.80;99.90
57444;DHT22;43289;52.962;6.196;2023-04-24T18:41:05;7.90;99.90
57444;DHT22;43289;52.962;6.196;2023-04-24T18:43:32;7.90;99.90
57444;DHT22;43289;52.962;6.196;2023-04-24T18:45:57;7.90;99.90
57444;DHT22;43289;52.962;6.196;2023-04-24T18:48:23;7.90;99.90
57444;DHT22;43289;52.962;6.196;2023-04-24T18:50:48;7.90;99.90
57444;DHT22;43289;52.962;6.196;2023-04-24T18:53:15;7.90;99.90
57444;DHT22;43289;52.962;6.196;2023-04-24T18:55:42;7.90;99.90
57444;DHT22;43289;52.962;6.196;2023-04-24T18:58:08;7.90;99.90
57444;DHT22;43289;52.962;6.196;2023-04-24T19:00:33;7.90;99.90
57444;DHT22;43289;52.962;6.196;2023-04-24T19:02:59;8.00;99.90
57444;DHT22;43289;52.962;6.196;2023-04-24T19:05:24;7.90;99.90
57444;DHT22;43289;52.962;6.196;2023-04-24T19:07:50;8.00;99.90
57444;DHT22;43289;52.962;6.196;2023-04-24T19:10:16;8.00;99.90
57444;DHT22;43289;52.962;6.196;2023-04-24T19:12:41;8.00;99.90
57444;DHT22;43289;52.962;6.196;2023-04-24T19:15:07;7.90;99.90
57444;DHT22;43289;52.962;6.196;2023-04-24T19:17:39;7.90;99.90
57444;DHT22;43289;52.962;6.196;2023-04-24T19:20:05;7.90;99.90
57444;DHT22;43289;52.962;6.196;2023-04-24T19:22:31;7.90;99.90
57444;DHT22;43289;52.962;6.196;2023-04-24T19:24:56;8.00;99.90
57444;DHT22;43289;52.962;6.196;2023-04-24T19:27:24;8.00;99.90
57444;DHT22;43289;52.962;6.196;2023-04-24T19:29:49;8.00;99.90
57444;DHT22;43289;52.962;6.196;2023-04-24T19:32:16;8.00;99.90
57444;DHT22;43289;52.962;6.196;2023-04-24T19:34:42;8.00;99.90
57444;DHT22;43289;52.962;6.196;2023-04-24T19:37:07;8.00;99.90
57444;DHT22;43289;52.962;6.196;2023-04-24T19:39:33;8.00;99.90
57444;DHT22;43289;52.962;6.196;2023-04-24T19:41:59;8.00;99.90
57444;DHT22;43289;52.962;6.196;2023-04-24T19:44:26;8.00;99.90
57444;DHT22;43289;52.962;6.196;2023-04-24T19:46:52;8.00;99.90
57444;DHT22;43289;52.962;6.196;2023-04-24T19:49:17;8.00;99.90
57444;DHT22;43289;52.962;6.196;2023-04-24T19:51:43;8.00;99.90
57444;DHT22;43289;52.962;6.196;2023-04-24T19:54:09;8.00;99.90
57444;DHT22;43289;52.962;6.196;2023-04-24T19:56:34;8.00;99.90
57444;DHT22;43289;52.962;6.196;2023-04-24T19:59:00;8.10;99.90
57444;DHT22;43289;52.962;6.196;2023-04-24T20:01:25;8.00;99.90
57444;DHT22;43289;52.962;6.196;2023-04-24T20:03:51;8.00;99.90
57444;DHT22;43289;52.962;6.196;2023-04-24T20:06:17;8.10;99.90
57444;DHT22;43289;52.962;6.196;2023-04-24T20:08:42;8.00;99.90
57444;DHT22;43289;52.962;6.196;2023-04-24T20:11:10;8.10;99.90
57444;DHT22;43289;52.962;6.196;2023-04-24T20:13:36;8.00;99.90
57444;DHT22;43289;52.962;6.196;2023-04-24T20:16:01;8.00;99.90
57444;DHT22;43289;52.962;6.196;2023-04-24T20:18:27;8.00;99.90
57444;DHT22;43289;52.962;6.196;2023-04-24T20:20:53;8.00;99.90
57444;DHT22;43289;52.962;6.196;2023-04-24T20:23:21;8.00;99.90
57444;DHT22;43289;52.962;6.196;2023-04-24T20:25:50;7.90;99.90
57444;DHT22;43289;52.962;6.196;2023-04-24T20:28:31;7.90;99.90
57444;DHT22;43289;52.962;6.196;2023-04-24T20:30:58;7.90;99.90
57444;DHT22;43289;52.962;6.196;2023-04-24T20:33:24;7.80;99.90
57444;DHT22;43289;52.962;6.196;2023-04-24T20:35:50;7.80;99.90
57444;DHT22;43289;52.962;6.196;2023-04-24T20:38:16;7.80;99.90
57444;DHT22;43289;52.962;6.196;2023-04-24T20:40:43;7.80;99.90
57444;DHT22;43289;52.962;6.196;2023-04-24T20:43:10;7.80;99.90
57444;DHT22;43289;52.962;6.196;2023-04-24T20:45:35;7.70;99.90
57444;DHT22;43289;52.962;6.196;2023-04-24T20:48:01;7.70;99.90
57444;DHT22;43289;52.962;6.196;2023-04-24T20:50:27;7.70;99.90
57444;DHT22;43289;52.962;6.196;2023-04-24T20:52:52;7.70;99.90
57444;DHT22;43289;52.962;6.196;2023-04-24T20:55:18;7.70;99.90
57444;DHT22;43289;52.962;6.196;2023-04-24T20:57:45;7.70;99.90
57444;DHT22;43289;52.962;6.196;2023-04-24T21:00:11;7.70;99.90
57444;DHT22;43289;52.962;6.196;2023-04-24T21:02:39;7.70;99.90
57444;DHT22;43289;52.962;6.196;2023-04-24T21:05:05;7.70;99.90
57444;DHT22;43289;52.962;6.196;2023-04-24T21:07:31;7.60;99.90
57444;DHT22;43289;52.962;6.196;2023-04-24T21:09:57;7.60;99.90
57444;DHT22;43289;52.962;6.196;2023-04-24T21:12:22;7.60;99.90
57444;DHT22;43289;52.962;6.196;2023-04-24T21:14:48;7.60;99.90
57444;DHT22;43289;52.962;6.196;2023-04-24T21:17:14;7.60;99.90
57444;DHT22;43289;52.962;6.196;2023-04-24T21:19:39;7.60;99.90
57444;DHT22;43289;52.962;6.196;2023-04-24T21:22:05;7.60;99.90
57444;DHT22;43289;52.962;6.196;2023-04-24T21:24:32;7.60;99.90
57444;DHT22;43289;52.962;6.196;2023-04-24T21:26:58;7.60;99.90
57444;DHT22;43289;52.962;6.196;2023-04-24T21:29:24;7.50;99.90
57444;DHT22;43289;52.962;6.196;2023-04-24T21:31:51;7.50;99.90
57444;DHT22;43289;52.962;6.196;2023-04-24T21:34:17;7.50;99.90
57444;DHT22;43289;52.962;6.196;2023-04-24T21:36:42;7.50;99.90
57444;DHT22;43289;52.962;6.196;2023-04-24T21:39:09;7.50;99.90
57444;DHT22;43289;52.962;6.196;2023-04-24T21:41:35;7.50;99.90
57444;DHT22;43289;52.962;6.196;2023-04-24T21:44:00;7.50;99.90
57444;DHT22;43289;52.962;6.196;2023-04-24T21:46:26;7.50;99.90
57444;DHT22;43289;52.962;6.196;2023-04-24T21:48:52;7.40;99.90
57444;DHT22;43289;52.962;6.196;2023-04-24T21:51:17;7.40;99.90
57444;DHT22;43289;52.962;6.196;2023-04-24T21:53:45;7.40;99.90
57444;DHT22;43289;52.962;6.196;2023-04-24T21:56:11;7.40;99.90
57444;DHT22;43289;52.962;6.196;2023-04-24T21:58:37;7.30;99.90
57444;DHT22;43289;52.962;6.196;2023-04-24T22:01:04;7.20;99.90
57444;DHT22;43289;52.962;6.196;2023-04-24T22:03:29;7.10;99.90
57444;DHT22;43289;52.962;6.196;2023-04-24T22:05:55;7.00;99.90
57444;DHT22;43289;52.962;6.196;2023-04-24T22:08:21;7.00;99.90
57444;DHT22;43289;52.962;6.196;2023-04-24T22:10:47;7.00;99.90
57444;DHT22;43289;52.962;6.196;2023-04-24T22:13:12;6.90;99.90
57444;DHT22;43289;52.962;6.196;2023-04-24T22:15:40;6.80;99.90
57444;DHT22;43289;52.962;6.196;2023-04-24T22:18:05;6.90;99.90
57444;DHT22;43289;52.962;6.196;2023-04-24T22:20:32;6.80;99.90
57444;DHT22;43289;52.962;6.196;2023-04-24T22:22:58;6.80;99.90
57444;DHT22;43289;52.962;6.196;2023-04-24T22:25:24;6.80;99.90
57444;DHT22;43289;52.962;6.196;2023-04-24T22:27:49;6.80;99.90
57444;DHT22;43289;52.962;6.196;2023-04-24T22:30:15;6.80;99.90
57444;DHT22;43289;52.962;6.196;2023-04-24T22:32:41;6.80;99.90
57444;DHT22;43289;52.962;6.196;2023-04-24T22:35:07;6.80;99.90
57444;DHT22;43289;52.962;6.196;2023-04-24T22:37:33;6.80;99.90
57444;DHT22;43289;52.962;6.196;2023-04-24T22:39:59;6.80;99.90
57444;DHT22;43289;52.962;6.196;2023-04-24T22:42:26;6.80;99.90
57444;DHT22;43289;52.962;6.196;2023-04-24T22:44:53;6.80;99.90
57444;DHT22;43289;52.962;6.196;2023-04-24T22:47:18;6.80;99.90
57444;DHT22;43289;52.962;6.196;2023-04-24T22:49:45;6.80;99.90
57444;DHT22;43289;52.962;6.196;2023-04-24T22:52:11;6.80;99.90
57444;DHT22;43289;52.962;6.196;2023-04-24T22:54:38;6.80;99.90
57444;DHT22;43289;52.962;6.196;2023-04-24T22:57:04;6.80;99.90
57444;DHT22;43289;52.962;6.196;2023-04-24T22:59:30;6.80;99.90
57444;DHT22;43289;52.962;6.196;2023-04-24T23:01:56;6.80;99.90
57444;DHT22;43289;52.962;6.196;2023-04-24T23:04:23;6.80;99.90
57444;DHT22;43289;52.962;6.196;2023-04-24T23:06:49;6.80;99.90
57444;DHT22;43289;52.962;6.196;2023-04-24T23:09:15;6.80;99.90
57444;DHT22;43289;52.962;6.196;2023-04-24T23:11:40;6.80;99.90
57444;DHT22;43289;52.962;6.196;2023-04-24T23:14:06;6.70;99.90
57444;DHT22;43289;52.962;6.196;2023-04-24T23:16:32;6.70;99.90
57444;DHT22;43289;52.962;6.196;2023-04-24T23:19:04;6.70;99.90
57444;DHT22;43289;52.962;6.196;2023-04-24T23:21:31;6.60;99.90
57444;DHT22;43289;52.962;6.196;2023-04-24T23:23:57;6.60;99.90
57444;DHT22;43289;52.962;6.196;2023-04-24T23:26:23;6.60;99.90
57444;DHT22;43289;52.962;6.196;2023-04-24T23:28:48;6.60;99.90
57444;DHT22;43289;52.962;6.196;2023-04-24T23:31:14;6.60;99.90
57444;DHT22;43289;52.962;6.196;2023-04-24T23:33:40;6.60;99.90
57444;DHT22;43289;52.962;6.196;2023-04-24T23:36:05;6.60;99.90
57444;DHT22;43289;52.962;6.196;2023-04-24T23:38:31;6.50;99.90
57444;DHT22;43289;52.962;6.196;2023-04-24T23:40:57;6.50;99.90
57444;DHT22;43289;52.962;6.196;2023-04-24T23:43:23;6.50;99.90
57444;DHT22;43289;52.962;6.196;2023-04-24T23:45:50;6.50;99.90
57444;DHT22;43289;52.962;6.196;2023-04-24T23:48:15;6.50;99.90
57444;DHT22;43289;52.962;6.196;2023-04-24T23:50:41;6.50;99.90
57444;DHT22;43289;52.962;6.196;2023-04-24T23:53:08;6.50;99.90
57444;DHT22;43289;52.962;6.196;2023-04-24T23:55:33;6.50;99.90
57444;DHT22;43289;52.962;6.196;2023-04-24T23:57:59;6.50;99.90
